createdAt,value
2019-02-05T00:02:40.047Z,99.90
2019-02-05T00:05:42.329Z,99.90
2019-02-05T00:08:44.594Z,99.90
2019-02-05T00:11:46.841Z,99.90
2019-02-05T00:14:49.067Z,99.90
2019-02-05T00:17:51.399Z,99.90
2019-02-05T00:20:53.996Z,99.90
2019-02-05T00:23:56.245Z,99.90
2019-02-05T00:26:58.537Z,99.90
2019-02-05T00:30:00.800Z,99.90
2019-02-05T00:33:03.141Z,99.90
2019-02-05T00:36:05.551Z,99.90
2019-02-05T00:39:08.134Z,99.90
2019-02-05T00:42:10.475Z,99.90
2019-02-05T00:45:12.795Z,99.90
2019-02-05T00:48:15.115Z,99.90
2019-02-05T00:51:17.416Z,99.90
2019-02-05T00:54:19.691Z,99.90
2019-02-05T00:57:21.978Z,99.90
2019-02-05T01:00:26.231Z,99.90
2019-02-05T01:03:28.495Z,99.90
2019-02-05T01:06:30.796Z,99.90
2019-02-05T01:09:33.128Z,99.90
2019-02-05T01:12:35.570Z,99.90
2019-02-05T01:15:37.840Z,99.90
2019-02-05T01:18:40.134Z,99.90
2019-02-05T01:21:42.412Z,99.90
2019-02-05T01:24:44.660Z,99.90
2019-02-05T01:27:46.995Z,99.90
2019-02-05T01:30:49.315Z,99.90
2019-02-05T01:33:51.583Z,99.90
2019-02-05T01:36:53.901Z,99.90
2019-02-05T01:39:56.144Z,99.90
2019-02-05T01:42:58.411Z,99.90
2019-02-05T01:46:00.710Z,99.90
2019-02-05T01:49:03.013Z,99.90
2019-02-05T01:52:05.284Z,99.90
2019-02-05T01:55:08.396Z,99.90
2019-02-05T01:58:10.675Z,99.90
2019-02-05T02:01:12.961Z,99.90
2019-02-05T02:04:15.264Z,99.90
2019-02-05T02:07:17.548Z,99.90
2019-02-05T02:10:21.730Z,99.90
2019-02-05T02:13:24.020Z,99.90
2019-02-05T02:16:26.323Z,99.90
2019-02-05T02:19:28.733Z,99.90
2019-02-05T02:22:31.011Z,99.90
2019-02-05T02:25:33.346Z,99.90
2019-02-05T02:28:35.589Z,99.90
2019-02-05T02:31:37.869Z,99.90
2019-02-05T02:34:40.210Z,99.90
2019-02-05T02:37:42.510Z,99.90
2019-02-05T02:40:44.792Z,99.90
2019-02-05T02:43:47.086Z,99.90
2019-02-05T02:46:49.388Z,99.90
2019-02-05T02:49:51.702Z,99.90
2019-02-05T02:52:54.030Z,99.90
2019-02-05T02:55:56.306Z,99.90
2019-02-05T02:58:58.580Z,99.90
2019-02-05T03:02:00.883Z,99.90
2019-02-05T03:05:04.313Z,99.90
2019-02-05T03:08:06.596Z,99.90
2019-02-05T03:11:08.948Z,99.90
2019-02-05T03:14:11.252Z,99.90
2019-02-05T03:17:13.530Z,99.90
2019-02-05T03:20:15.830Z,99.90
2019-02-05T03:23:18.134Z,99.90
2019-02-05T03:26:20.399Z,99.90
2019-02-05T03:29:22.671Z,99.90
2019-02-05T03:32:24.937Z,99.90
2019-02-05T03:35:27.245Z,99.90
2019-02-05T03:38:29.537Z,99.90
2019-02-05T03:41:32.016Z,99.90
2019-02-05T03:44:34.273Z,99.90
2019-02-05T03:47:36.619Z,99.90
2019-02-05T03:50:39.690Z,99.90
2019-02-05T03:53:44.602Z,99.90
2019-02-05T03:56:55.665Z,99.90
2019-02-05T04:00:24.147Z,99.90
2019-02-05T04:03:46.731Z,99.90
2019-02-05T04:09:31.799Z,99.90
2019-02-05T04:12:49.866Z,99.90
2019-02-05T04:16:36.147Z,99.90
2019-02-05T04:19:57.871Z,99.90
2019-02-05T04:23:16.628Z,99.90
2019-02-05T04:26:30.311Z,99.90
2019-02-05T04:29:44.422Z,99.90
2019-02-05T04:32:53.535Z,99.90
2019-02-05T04:36:09.411Z,99.90
2019-02-05T04:39:27.180Z,99.90
2019-02-05T04:42:48.514Z,99.90
2019-02-05T04:46:16.957Z,99.90
2019-02-05T04:51:30.999Z,99.90
2019-02-05T04:54:49.956Z,99.90
2019-02-05T04:58:08.080Z,99.90
2019-02-05T05:01:36.937Z,99.90
2019-02-05T05:04:47.728Z,99.90
2019-02-05T05:08:20.120Z,99.90
2019-02-05T05:11:22.434Z,99.90
2019-02-05T05:14:24.783Z,99.90
2019-02-05T05:17:27.084Z,99.90
2019-02-05T05:20:29.468Z,99.90
2019-02-05T05:23:31.841Z,99.90
2019-02-05T05:26:34.162Z,99.90
2019-02-05T05:29:36.477Z,99.90
2019-02-05T05:32:38.763Z,99.90
2019-02-05T05:35:44.482Z,99.90
2019-02-05T05:38:43.383Z,99.90
2019-02-05T05:41:45.700Z,99.90
2019-02-05T05:44:47.966Z,99.90
2019-02-05T05:47:50.286Z,99.90
2019-02-05T05:50:52.559Z,99.90
2019-02-05T05:53:54.850Z,99.90
2019-02-05T05:56:57.123Z,99.90
2019-02-05T05:59:59.410Z,99.90
2019-02-05T06:03:01.676Z,99.90
2019-02-05T06:06:04.051Z,99.90
2019-02-05T06:09:07.704Z,99.90
2019-02-05T06:12:09.987Z,99.90
2019-02-05T06:15:12.541Z,99.90
2019-02-05T06:18:14.823Z,99.90
2019-02-05T06:21:17.112Z,99.90
2019-02-05T06:24:19.431Z,99.90
2019-02-05T06:27:21.729Z,99.90
2019-02-05T06:30:24.113Z,99.90
2019-02-05T06:33:26.509Z,99.90
2019-02-05T06:36:28.812Z,99.90
2019-02-05T06:39:31.125Z,99.90
2019-02-05T06:42:33.478Z,99.90
2019-02-05T06:45:35.760Z,99.90
2019-02-05T06:48:38.012Z,99.90
2019-02-05T06:51:40.355Z,99.90
2019-02-05T06:54:42.662Z,99.50
2019-02-05T06:57:44.891Z,99.70
2019-02-05T07:00:47.186Z,99.50
2019-02-05T07:03:49.493Z,99.90
2019-02-05T07:06:51.723Z,99.90
2019-02-05T07:09:54.011Z,99.10
2019-02-05T07:12:56.328Z,99.30
2019-02-05T07:15:58.584Z,99.00
2019-02-05T07:19:00.881Z,99.50
2019-02-05T07:22:03.254Z,99.50
2019-02-05T07:25:07.499Z,98.50
2019-02-05T07:28:09.811Z,97.80
2019-02-05T07:31:12.173Z,97.60
2019-02-05T07:34:14.455Z,98.00
2019-02-05T07:37:16.704Z,97.90
2019-02-05T07:40:19.038Z,97.60
2019-02-05T07:43:21.321Z,97.60
2019-02-05T07:46:23.685Z,97.70
2019-02-05T07:49:25.992Z,97.80
2019-02-05T07:52:28.274Z,98.30
2019-02-05T07:55:30.568Z,99.00
2019-02-05T07:58:32.851Z,99.40
2019-02-05T08:01:35.167Z,99.80
2019-02-05T08:04:37.419Z,99.90
2019-02-05T08:07:39.735Z,99.90
2019-02-05T08:10:42.016Z,99.80
2019-02-05T08:13:44.283Z,99.90
2019-02-05T08:16:48.000Z,99.90
2019-02-05T08:19:48.872Z,99.90
2019-02-05T08:22:51.199Z,99.90
2019-02-05T08:25:53.467Z,99.90
2019-02-05T08:28:55.768Z,99.90
2019-02-05T08:31:58.030Z,99.90
2019-02-05T08:35:00.399Z,99.90
2019-02-05T08:38:02.701Z,99.90
2019-02-05T08:41:05.016Z,99.90
2019-02-05T08:44:07.328Z,99.90
2019-02-05T08:47:09.603Z,99.90
2019-02-05T08:50:14.623Z,99.90
2019-02-05T08:53:16.905Z,99.90
2019-02-05T08:56:19.188Z,99.90
2019-02-05T08:59:21.510Z,99.90
2019-02-05T09:02:23.842Z,99.90
2019-02-05T09:05:26.159Z,99.90
2019-02-05T09:08:28.445Z,99.90
2019-02-05T09:11:30.764Z,99.90
2019-02-05T09:14:33.051Z,99.90
2019-02-05T09:17:35.336Z,99.90
2019-02-05T09:20:37.669Z,99.90
2019-02-05T09:23:39.975Z,99.90
2019-02-05T09:26:42.272Z,99.90
2019-02-05T09:29:44.579Z,99.90
2019-02-05T09:32:47.126Z,99.90
2019-02-05T09:35:49.423Z,99.90
2019-02-05T09:38:51.707Z,99.90
2019-02-05T09:41:54.065Z,99.90
2019-02-05T09:44:56.398Z,99.90
2019-02-05T09:47:58.870Z,99.90
2019-02-05T09:51:01.177Z,99.90
2019-02-05T09:54:03.518Z,99.90
2019-02-05T09:57:05.830Z,99.70
2019-02-05T10:00:14.031Z,99.20
2019-02-05T10:03:16.339Z,99.40
2019-02-05T10:06:18.660Z,99.90
2019-02-05T10:09:20.911Z,99.90
2019-02-05T10:12:23.227Z,99.50
2019-02-05T10:15:28.243Z,98.80
2019-02-05T10:18:30.564Z,98.00
2019-02-05T10:21:32.868Z,98.20
2019-02-05T10:24:35.165Z,98.10
2019-02-05T10:27:37.499Z,98.00
2019-02-05T10:30:41.579Z,98.00
2019-02-05T10:33:54.652Z,98.50
2019-02-05T10:36:46.118Z,98.50
2019-02-05T10:39:48.376Z,99.00
2019-02-05T10:42:50.687Z,98.60
2019-02-05T10:45:52.971Z,98.90
2019-02-05T10:48:56.263Z,98.50
2019-02-05T10:51:58.560Z,98.90
2019-02-05T10:55:00.871Z,99.90
2019-02-05T10:58:03.343Z,99.90
2019-02-05T11:01:05.658Z,99.90
2019-02-05T11:04:07.989Z,99.90
2019-02-05T11:07:10.320Z,99.90
2019-02-05T11:10:12.610Z,99.90
2019-02-05T11:13:14.987Z,99.90
2019-02-05T11:16:17.244Z,99.80
2019-02-05T11:19:19.523Z,99.30
2019-02-05T11:22:21.873Z,99.90
2019-02-05T11:25:24.203Z,99.00
2019-02-05T11:28:27.090Z,98.70
2019-02-05T11:31:29.428Z,99.10
2019-02-05T11:34:31.761Z,99.10
2019-02-05T11:37:34.610Z,98.50
2019-02-05T11:40:36.982Z,98.60
2019-02-05T11:43:39.263Z,98.70
2019-02-05T11:46:41.515Z,99.00
2019-02-05T11:49:43.834Z,98.40
2019-02-05T11:52:46.215Z,98.10
2019-02-05T11:55:48.509Z,98.60
2019-02-05T11:58:50.819Z,98.10
2019-02-05T12:01:53.071Z,98.30
2019-02-05T12:04:55.310Z,99.10
2019-02-05T12:07:57.835Z,99.50
2019-02-05T12:11:00.820Z,99.70
2019-02-05T12:14:03.420Z,99.30
2019-02-05T12:17:05.754Z,99.30
2019-02-05T12:20:09.883Z,99.50
2019-02-05T12:23:12.219Z,99.30
2019-02-05T12:26:14.517Z,98.80
2019-02-05T12:29:16.909Z,99.20
2019-02-05T12:32:19.210Z,98.60
2019-02-05T12:35:21.514Z,99.00
2019-02-05T12:38:23.815Z,99.00
2019-02-05T12:41:26.148Z,99.20
2019-02-05T12:44:28.451Z,99.70
2019-02-05T12:47:30.716Z,99.50
2019-02-05T12:50:33.953Z,99.90
2019-02-05T12:53:36.248Z,99.50
2019-02-05T12:56:38.520Z,99.40
2019-02-05T12:59:40.803Z,99.20
2019-02-05T13:02:43.062Z,99.80
2019-02-05T13:05:45.363Z,99.70
2019-02-05T13:08:47.676Z,99.50
2019-02-05T13:11:49.947Z,99.90
2019-02-05T13:14:52.203Z,99.80
2019-02-05T13:17:54.498Z,99.90
2019-02-05T13:20:56.815Z,99.90
2019-02-05T13:23:59.132Z,99.90
2019-02-05T13:27:01.464Z,99.90
2019-02-05T13:30:05.108Z,99.90
2019-02-05T13:33:07.483Z,99.90
2019-02-05T13:36:10.017Z,99.90
2019-02-05T13:39:12.549Z,99.90
2019-02-05T13:42:14.819Z,99.90
2019-02-05T13:45:18.679Z,99.90
2019-02-05T13:48:20.960Z,99.90
2019-02-05T13:51:23.265Z,99.90
2019-02-05T13:54:25.559Z,99.90
2019-02-05T13:57:27.820Z,99.90
2019-02-05T14:00:33.244Z,99.90
2019-02-05T14:03:35.539Z,99.90
2019-02-05T14:06:37.845Z,99.90
2019-02-05T14:09:40.155Z,99.90
2019-02-05T14:12:42.500Z,99.90
2019-02-05T14:15:46.466Z,99.90
2019-02-05T14:18:55.481Z,99.90
2019-02-05T14:21:51.066Z,99.90
2019-02-05T14:24:53.343Z,99.90
2019-02-05T14:27:55.655Z,99.90
2019-02-05T14:30:57.937Z,99.90
2019-02-05T14:34:00.195Z,99.90
2019-02-05T14:37:02.517Z,99.90
2019-02-05T14:40:07.116Z,99.90
2019-02-05T14:43:09.428Z,99.90
2019-02-05T14:46:13.148Z,99.90
2019-02-05T14:49:14.035Z,99.90
2019-02-05T14:52:16.287Z,99.90
2019-02-05T14:55:18.560Z,99.90
2019-02-05T14:58:20.832Z,99.90
2019-02-05T15:01:23.154Z,99.90
2019-02-05T15:04:25.444Z,99.90
2019-02-05T15:07:27.731Z,99.90
2019-02-05T15:10:30.034Z,99.90
2019-02-05T15:13:32.318Z,99.90
2019-02-05T15:16:34.616Z,99.90
2019-02-05T15:19:36.911Z,99.90
2019-02-05T15:22:39.185Z,99.90
2019-02-05T15:25:41.533Z,99.90
2019-02-05T15:28:43.812Z,99.90
2019-02-05T15:31:54.160Z,99.90
2019-02-05T15:34:48.424Z,99.90
2019-02-05T15:37:50.682Z,99.90
2019-02-05T15:40:53.046Z,99.90
2019-02-05T15:43:56.371Z,99.90
2019-02-05T15:46:58.696Z,99.90
2019-02-05T15:50:05.981Z,99.90
2019-02-05T15:53:03.296Z,99.90
2019-02-05T15:56:05.657Z,99.90
2019-02-05T15:59:07.956Z,99.90
2019-02-05T16:02:10.264Z,99.90
2019-02-05T16:05:12.564Z,99.90
2019-02-05T16:08:14.819Z,99.90
2019-02-05T16:11:17.101Z,99.90
2019-02-05T16:14:19.389Z,99.90
2019-02-05T16:17:21.701Z,99.90
2019-02-05T16:20:24.095Z,99.90
2019-02-05T16:23:26.393Z,99.90
2019-02-05T16:26:28.670Z,99.90
2019-02-05T16:29:30.943Z,99.90
2019-02-05T16:32:33.235Z,99.90
2019-02-05T16:35:35.537Z,99.90
2019-02-05T16:38:37.832Z,99.90
2019-02-05T16:41:40.188Z,99.90
2019-02-05T16:44:42.539Z,99.90
2019-02-05T16:47:44.838Z,99.90
2019-02-05T16:50:47.310Z,99.90
2019-02-05T16:53:49.687Z,99.90
2019-02-05T16:56:52.166Z,99.90
2019-02-05T16:59:54.521Z,99.90
2019-02-05T17:02:56.795Z,99.90
2019-02-05T17:05:59.207Z,99.90
2019-02-05T17:09:01.479Z,99.90
2019-02-05T17:12:04.036Z,99.90
2019-02-05T17:15:08.317Z,99.90
2019-02-05T17:18:10.630Z,99.90
2019-02-05T17:21:13.038Z,99.90
2019-02-05T17:24:15.328Z,99.90
2019-02-05T17:27:17.633Z,99.90
2019-02-05T17:30:21.865Z,99.90
2019-02-05T17:33:24.139Z,99.90
2019-02-05T17:36:26.508Z,99.90
2019-02-05T17:39:28.771Z,99.90
2019-02-05T17:42:31.120Z,99.90
2019-02-05T17:45:35.304Z,99.90
2019-02-05T17:48:37.683Z,99.90
2019-02-05T17:51:40.091Z,99.90
2019-02-05T17:54:42.619Z,99.90
2019-02-05T17:57:45.316Z,99.90
2019-02-05T18:00:49.612Z,99.90
2019-02-05T18:03:51.947Z,99.90
2019-02-05T18:06:54.507Z,99.90
2019-02-05T18:09:57.339Z,99.90
2019-02-05T18:13:00.412Z,99.90
2019-02-05T18:16:15.208Z,99.90
2019-02-05T18:19:18.114Z,99.90
2019-02-05T18:22:20.980Z,99.90
2019-02-05T18:25:23.753Z,99.90
2019-02-05T18:28:26.356Z,99.90
2019-02-05T18:31:29.106Z,99.90
2019-02-05T18:34:31.957Z,99.90
2019-02-05T18:37:36.085Z,99.90
2019-02-05T18:40:39.061Z,99.90
2019-02-05T18:43:42.112Z,99.90
2019-02-05T18:46:45.389Z,99.90
2019-02-05T18:49:48.371Z,99.90
2019-02-05T18:52:51.283Z,99.90
2019-02-05T18:55:54.690Z,99.90
2019-02-05T18:58:57.235Z,99.90
2019-02-05T19:02:01.108Z,99.90
2019-02-05T19:05:06.673Z,99.90
2019-02-05T19:08:09.803Z,99.90
2019-02-05T19:11:13.001Z,99.90
2019-02-05T19:14:17.163Z,99.90
2019-02-05T19:17:20.262Z,99.90
2019-02-05T19:20:24.982Z,99.90
2019-02-05T19:23:28.417Z,99.90
2019-02-05T19:26:35.964Z,99.90
2019-02-05T19:29:40.280Z,99.90
2019-02-05T19:32:43.787Z,99.90
2019-02-05T19:35:48.099Z,99.90
2019-02-05T19:38:52.314Z,99.90
2019-02-05T19:41:56.097Z,99.90
2019-02-05T19:45:04.652Z,99.90
2019-02-05T19:48:10.343Z,99.90
2019-02-05T19:51:16.225Z,99.90
2019-02-05T19:54:18.877Z,99.90
2019-02-05T19:57:23.163Z,99.90
2019-02-05T20:00:26.194Z,99.90
2019-02-05T20:03:38.256Z,99.90
2019-02-05T20:06:34.938Z,99.90
2019-02-05T20:09:38.445Z,99.90
2019-02-05T20:12:42.863Z,99.90
2019-02-05T20:15:45.969Z,99.90
2019-02-05T20:18:50.378Z,99.90
2019-02-05T20:21:53.812Z,99.90
2019-02-05T20:24:57.153Z,99.90
2019-02-05T20:28:00.435Z,99.90
2019-02-05T20:31:03.388Z,99.90
2019-02-05T20:34:07.306Z,99.90
2019-02-05T20:37:10.949Z,99.90
2019-02-05T20:40:15.463Z,99.90
2019-02-05T20:43:18.401Z,99.90
2019-02-05T20:46:21.491Z,99.90
2019-02-05T20:49:24.951Z,99.90
2019-02-05T20:52:30.165Z,99.90
2019-02-05T20:55:33.911Z,99.90
2019-02-05T20:58:37.315Z,99.90
2019-02-05T21:01:40.500Z,99.90
2019-02-05T21:04:48.460Z,99.90
2019-02-05T21:07:46.324Z,99.90
2019-02-05T21:10:49.289Z,99.90
2019-02-05T21:13:52.647Z,99.90
2019-02-05T21:16:55.335Z,99.90
2019-02-05T21:19:57.655Z,99.90
2019-02-05T21:23:00.055Z,99.90
2019-02-05T21:26:02.426Z,99.90
2019-02-05T21:29:05.157Z,99.90
2019-02-05T21:32:07.474Z,99.90
2019-02-05T21:35:09.873Z,99.90
2019-02-05T21:38:12.232Z,99.90
2019-02-05T21:41:14.540Z,99.90
2019-02-05T21:44:16.792Z,99.90
2019-02-05T21:47:19.086Z,99.90
2019-02-05T21:50:21.503Z,99.90
2019-02-05T21:53:23.871Z,99.90
2019-02-05T21:56:26.133Z,99.90
2019-02-05T21:59:28.385Z,99.90
2019-02-05T22:02:30.717Z,99.90
2019-02-05T22:05:33.093Z,99.90
2019-02-05T22:08:35.424Z,99.90
2019-02-05T22:11:40.741Z,99.90
2019-02-05T22:14:40.100Z,99.90
2019-02-05T22:17:42.516Z,99.90
2019-02-05T22:20:44.919Z,99.90
2019-02-05T22:23:47.246Z,99.90
2019-02-05T22:26:49.543Z,99.90
2019-02-05T22:29:52.094Z,99.90
2019-02-05T22:32:54.481Z,99.90
2019-02-05T22:35:56.746Z,99.90
2019-02-05T22:38:59.049Z,99.90
2019-02-05T22:42:01.447Z,99.90
2019-02-05T22:45:04.937Z,99.90
2019-02-05T22:48:07.264Z,99.90
2019-02-05T22:51:09.616Z,99.90
2019-02-05T22:54:11.907Z,99.90
2019-02-05T22:57:14.372Z,99.90
2019-02-05T23:00:27.419Z,99.90
2019-02-05T23:03:35.135Z,99.90
2019-02-05T23:06:52.507Z,99.90
2019-02-05T23:10:11.506Z,99.90
2019-02-05T23:13:16.264Z,99.90
2019-02-05T23:16:18.552Z,99.90
2019-02-05T23:19:20.854Z,99.90
2019-02-05T23:22:23.187Z,99.90
2019-02-05T23:25:25.443Z,99.90
2019-02-05T23:28:27.757Z,99.90
2019-02-05T23:31:30.033Z,99.90
2019-02-05T23:34:32.300Z,99.90
2019-02-05T23:37:34.587Z,99.90
2019-02-05T23:40:36.843Z,99.90
2019-02-05T23:43:39.195Z,99.90
2019-02-05T23:46:41.562Z,99.90
2019-02-05T23:49:43.846Z,99.90
2019-02-05T23:52:46.153Z,99.90
2019-02-05T23:55:48.427Z,99.90
2019-02-05T23:58:50.729Z,99.90
